West Navigator — 3ERR2 — position and weather

sailwx.info

Track history (hours):
 
Tides and Currents Weather Stations Pressure Air Temp Water Temp Dewpoint Dewpoint Depression Visibility Wind Speed Wind Dir Waves Ship Positions

West Navigator

Last reported at 2016-May-03 09:00 UTC. Time now 2016-May-03 14:27 UTC.
Position N 60°42' E 005°06'.

Length 253 m; draft 15 m.

Type: Other ship. MMSI: 370144000.

Wind from 140 at 8 knots

Waves 1.0 meters (3 feet), 15 second period

Barometer 1011.2 mb
Air temperature 7.0 ° C
Dewpoint 6.0 ° C

Date/timePositionNaut miles runAvg speedWind from/ knotsBaromVisibWave heightAir tempDewpointWater temp
2016-May-03 09:00N 60°42' E 005°06'0 0.0 140 / 81011.2 1.0 7.0 6.0
2016-May-03 03:00N 60°42' E 005°06'0 0.0 160 / 101009.0 0.5 7.5 7.0
2016-May-03 00:00N 60°42' E 005°06'0 0.0 170 / 131008.9 0.5 7.5 7.4
2016-May-02 21:00N 60°42' E 005°06'0 0.0 170 / 151008.3 0.5 7.8 7.0
2016-May-02 18:00N 60°42' E 005°06'0 0.0 170 / 191007.7 0.5 8.0 6.8
2016-May-02 15:00N 60°42' E 005°06'0 0.0 170 / 261008.2 0.5 8.6 6.6
2016-May-02 12:00N 60°42' E 005°06'0 0.0 170 / 281008.3 0.5 9.4 7.4
2016-May-02 09:00N 60°42' E 005°06'0 0.0 160 / 271009.5 0.5 8.3 7.3
2016-May-02 06:00N 60°42' E 005°06'0 0.0 160 / 241011.5 0.5 7.7 5.6
2016-May-02 03:00N 60°42' E 005°06'0 0.0 160 / 241014.2 0.5 6.9 5.1
2016-May-02 00:00N 60°42' E 005°06'0 0.0 160 / 251016.4 0.5 7.1 4.4
2016-May-01 21:00N 60°42' E 005°06'0 0.0 160 / 211018.3 0.5 5.9 5.0
2016-May-01 18:00N 60°42' E 005°06'0 0.0 190 / 211019.0 0.5 6.8 3.2
2016-May-01 15:10N 60°42' E 005°06'0 0.0 180 / 191019.9 0.5 6.9 2.7
2016-May-01 12:00N 60°42' E 005°06'0 0.0 160 / 211019.7 0.5 8.6 0.9
2016-May-01 09:00N 60°42' E 005°06'0 0.0 170 / 201021.0 0.5 7.2 1.3
2016-May-01 06:00N 60°42' E 005°06'0 0.0 170 / 131021.2 0.5 5.7 3.1
2016-May-01 03:10N 60°42' E 005°06'0 0.0 150 / 101020.8 0.5 5.9 2.8
2016-May-01 00:00N 60°42' E 005°06'0 0.0 130 / 51019.8 0.5 6.4 3.8
2016-Apr-30 21:00N 60°42' E 005°06'0 0.0 010 / 31018.8 2.0 7.6 1.8
2016-Apr-30 18:00N 60°42' E 005°06'0 0.0 310 / 51017.2 1.0 9.3-1.3
2016-Apr-30 15:00N 60°42' E 005°06'0 0.0 160 / 31016.0 1.510.5-0.9
2016-Apr-30 12:00N 60°42' E 005°06'0 0.0 130 / 91015.1 0.510.2-5.2
2016-Apr-30 09:00N 60°42' E 005°06'0 0.0 140 / 41014.7 9.4-4.3
2016-Apr-30 06:00N 60°42' E 005°06'0 0.0 020 / 31014.3 1.0 5.9 2.6
2016-Apr-30 00:00N 60°42' E 005°06'0 0.0 160 / 71011.7 0.5 5.7 2.6
2016-Apr-29 21:00N 60°42' E 005°06'0 0.0 220 / 11010.2 5.0 4.0
2016-Apr-29 18:00N 60°42' E 005°06'0 0.0 130 / 51009.7 0.5 5.2 3.7
2016-Apr-29 15:00N 60°42' E 005°06'0 0.0 270 / 101007.7 0.5 8.2 3.0
2016-Apr-29 12:00N 60°42' E 005°06'0 0.0 200 / 191005.4 0.5 6.4 3.4
2016-Apr-29 09:00N 60°42' E 005°06'0 0.0 230 / 71003.2 0.5 6.8 3.9
2016-Apr-29 06:00N 60°42' E 005°06'0 0.0 160 / 81003.8 3.0 4.7-0.9
2016-Apr-29 03:00N 60°42' E 005°06'0 0.0 110 / 11005.8 4.0 4.1 0.3
2016-Apr-28 21:00N 60°42' E 005°06'0 0.0 020 / 61010.5 2.0 6.9-3.6
2016-Apr-28 18:00N 60°42' E 005°06'0 0.0 300 / 51011.7 1.5 8.8 2.4
2016-Apr-28 15:00N 60°42' E 005°06'0 0.0 260 / 51011.7 1.011.5 1.8
2016-Apr-28 12:00N 60°42' E 005°06'0 0.0 280 / 61011.4 2.5 9.7-0.3
2016-Apr-28 09:00N 60°42' E 005°06'0 0.0 130 / 31011.3 2.0 9.3-5.2
2016-Apr-28 06:00N 60°42' E 005°06'0 0.0 120 / 71010.7 1.5 5.5-2.0
2016-Apr-28 03:00N 60°42' E 005°06'0 0.0 070 / 21009.3 1.5 3.6 0.4
2016-Apr-28 00:00N 60°42' E 005°06'0 0.0 040 / 21008.3 3.1-1.6
2016-Apr-27 21:10N 60°42' E 005°06'0 0.0 010 / 31007.3 2.0 5.2-1.6
2016-Apr-27 18:00N 60°42' E 005°06'0 0.0 320 / 41006.5 1.0 8.3-7.0
2016-Apr-27 15:00N 60°42' E 005°06'0 0.0 310 / 41006.3 0.5 9.3-7.3
2016-Apr-27 12:10N 60°42' E 005°06'0 0.0 250 / 51005.8 11.3-6.9
2016-Apr-27 09:00N 60°42' E 005°06'0 0.0 130 / 21006.3 0.5 7.7-7.5
2016-Apr-27 06:00N 60°42' E 005°06'0 0.0 040 / 31006.8 1.0 4.5-4.2
2016-Apr-27 03:00N 60°42' E 005°06'0 0.0 020 / 41006.9 1.0 2.2-5.7
2016-Apr-27 00:00N 60°42' E 005°06'0 0.0 030 / 51007.1 1.5 3.3-4.7
2016-Apr-26 21:00N 60°42' E 005°06'0 0.0 050 / 41007.7 3.5 5.2-6.2
2016-Apr-26 18:00N 60°42' E 005°06'0 0.0 070 / 51007.7 8.0-9.0
2016-Apr-26 15:00N 60°42' E 005°06'0 0.0 170 / 81007.6 1.0 8.5-8.2
2016-Apr-26 12:00N 60°42' E 005°06'0 0.0 160 / 41008.0 0.5 8.5-9.4
2016-Apr-26 09:00N 60°42' E 005°06'0 0.0 180 / 31008.1 2.5 7.9-8.7
2016-Apr-26 06:00N 60°42' E 005°06'0 0.0 020 / 41008.0 1.5 5.7-5.3
2016-Apr-26 03:00N 60°42' E 005°06'0 0.0 020 / 71007.0 1.0 3.8-4.2
2016-Apr-26 00:00N 60°42' E 005°06'0 0.0 030 / 61006.0 0.5 5.1-5.0
2016-Apr-25 21:00N 60°42' E 005°06'0 0.0 060 / 51004.9 1.5 5.7-5.3
2016-Apr-25 18:00N 60°42' E 005°06'0 0.0 060 / 51003.6 0.5 6.6-3.9
2016-Apr-25 09:00N 60°42' E 005°06'0 0.0 160 / 51002.1 0.5 4.6-6.1
2016-Apr-25 06:00N 60°42' E 005°06'0 0.0 040 / 21002.4 1.5 2.0-3.6
2016-Apr-25 03:00N 60°42' E 005°06'0 0.0 040 / 21003.5 0.5 0.4-2.0
2016-Apr-25 00:00N 60°42' E 005°06'0 0.0 060 / 11005.8 1.5 0.8-0.8
2016-Apr-24 21:00N 60°42' E 005°06'0 0.0 350 / 21008.1 1.0 1.9-2.2
2016-Apr-24 18:00N 60°42' E 005°06'0 0.0 340 / 61009.4 0.5 3.9-2.6
2016-Apr-24 15:00N 60°42' E 005°06'0 0.0 340 / 101010.6 0.5 5.2-2.7
2016-Apr-24 09:00N 60°42' E 005°06'0 0.0 010 / 51012.9 1.0 6.2-6.1
2016-Apr-24 06:00N 60°42' E 005°06'0 0.0 010 / 71013.1 1.5 2.6-4.9
2016-Apr-24 03:00N 60°42' E 005°06'0 0.0 030 / 51013.2 0.5 1.5-4.5
2016-Apr-24 00:00N 60°42' E 005°06'0 0.0 010 / 71012.9 0.5 2.4-4.4
2016-Apr-23 21:00N 60°42' E 005°06'0 0.0 020 / 81012.3 0.5 3.2-2.6
2016-Apr-23 18:00N 60°42' E 005°06'0 0.0 350 / 61011.3 1.0 4.7-2.7
2016-Apr-23 15:00N 60°42' E 005°06'0 0.0 050 / 51011.3 0.5 3.7-1.5
2016-Apr-23 12:00N 60°42' E 005°06'0 0.0 010 / 101012.0 0.5 4.8-5.9
2016-Apr-23 09:00N 60°42' E 005°06'   360 / 81012.6 0.5 4.1-1.2
Track history (hours):
 
Tides and Currents Weather Stations Pressure Air Temp Water Temp Dewpoint Dewpoint Depression Visibility Wind Speed Wind Dir Waves Ship Positions

West Navigator

Last reported at 2016-May-03 09:00 UTC. Time now 2016-May-03 14:27 UTC.
Position N 60°42' E 005°06'.

Length 253 m; draft 15 m.

Type: Other ship. MMSI: 370144000.

Wind from 140 at 8 knots

Waves 1.0 meters (3 feet), 15 second period

Barometer 1011.2 mb
Air temperature 7.0 ° C
Dewpoint 6.0 ° C

Date/timePositionNaut miles runAvg speedWind from/ knotsBaromVisibWave heightAir tempDewpointWater temp
2016-May-03 09:00N 60°42' E 005°06'0 0.0 140 / 81011.2 1.0 7.0 6.0
2016-May-03 03:00N 60°42' E 005°06'0 0.0 160 / 101009.0 0.5 7.5 7.0
2016-May-03 00:00N 60°42' E 005°06'0 0.0 170 / 131008.9 0.5 7.5 7.4
2016-May-02 21:00N 60°42' E 005°06'0 0.0 170 / 151008.3 0.5 7.8 7.0
2016-May-02 18:00N 60°42' E 005°06'0 0.0 170 / 191007.7 0.5 8.0 6.8
2016-May-02 15:00N 60°42' E 005°06'0 0.0 170 / 261008.2 0.5 8.6 6.6
2016-May-02 12:00N 60°42' E 005°06'0 0.0 170 / 281008.3 0.5 9.4 7.4
2016-May-02 09:00N 60°42' E 005°06'0 0.0 160 / 271009.5 0.5 8.3 7.3
2016-May-02 06:00N 60°42' E 005°06'0 0.0 160 / 241011.5 0.5 7.7 5.6
2016-May-02 03:00N 60°42' E 005°06'0 0.0 160 / 241014.2 0.5 6.9 5.1
2016-May-02 00:00N 60°42' E 005°06'0 0.0 160 / 251016.4 0.5 7.1 4.4
2016-May-01 21:00N 60°42' E 005°06'0 0.0 160 / 211018.3 0.5 5.9 5.0
2016-May-01 18:00N 60°42' E 005°06'0 0.0 190 / 211019.0 0.5 6.8 3.2
2016-May-01 15:10N 60°42' E 005°06'0 0.0 180 / 191019.9 0.5 6.9 2.7
2016-May-01 12:00N 60°42' E 005°06'0 0.0 160 / 211019.7 0.5 8.6 0.9
2016-May-01 09:00N 60°42' E 005°06'0 0.0 170 / 201021.0 0.5 7.2 1.3
2016-May-01 06:00N 60°42' E 005°06'0 0.0 170 / 131021.2 0.5 5.7 3.1
2016-May-01 03:10N 60°42' E 005°06'0 0.0 150 / 101020.8 0.5 5.9 2.8
2016-May-01 00:00N 60°42' E 005°06'0 0.0 130 / 51019.8 0.5 6.4 3.8
2016-Apr-30 21:00N 60°42' E 005°06'0 0.0 010 / 31018.8 2.0 7.6 1.8
2016-Apr-30 18:00N 60°42' E 005°06'0 0.0 310 / 51017.2 1.0 9.3-1.3
2016-Apr-30 15:00N 60°42' E 005°06'0 0.0 160 / 31016.0 1.510.5-0.9
2016-Apr-30 12:00N 60°42' E 005°06'0 0.0 130 / 91015.1 0.510.2-5.2
2016-Apr-30 09:00N 60°42' E 005°06'0 0.0 140 / 41014.7 9.4-4.3
2016-Apr-30 06:00N 60°42' E 005°06'0 0.0 020 / 31014.3 1.0 5.9 2.6
2016-Apr-30 00:00N 60°42' E 005°06'0 0.0 160 / 71011.7 0.5 5.7 2.6
2016-Apr-29 21:00N 60°42' E 005°06'0 0.0 220 / 11010.2 5.0 4.0
2016-Apr-29 18:00N 60°42' E 005°06'0 0.0 130 / 51009.7 0.5 5.2 3.7
2016-Apr-29 15:00N 60°42' E 005°06'0 0.0 270 / 101007.7 0.5 8.2 3.0
2016-Apr-29 12:00N 60°42' E 005°06'0 0.0 200 / 191005.4 0.5 6.4 3.4
2016-Apr-29 09:00N 60°42' E 005°06'0 0.0 230 / 71003.2 0.5 6.8 3.9
2016-Apr-29 06:00N 60°42' E 005°06'0 0.0 160 / 81003.8 3.0 4.7-0.9
2016-Apr-29 03:00N 60°42' E 005°06'0 0.0 110 / 11005.8 4.0 4.1 0.3
2016-Apr-28 21:00N 60°42' E 005°06'0 0.0 020 / 61010.5 2.0 6.9-3.6
2016-Apr-28 18:00N 60°42' E 005°06'0 0.0 300 / 51011.7 1.5 8.8 2.4
2016-Apr-28 15:00N 60°42' E 005°06'0 0.0 260 / 51011.7 1.011.5 1.8
2016-Apr-28 12:00N 60°42' E 005°06'0 0.0 280 / 61011.4 2.5 9.7-0.3
2016-Apr-28 09:00N 60°42' E 005°06'0 0.0 130 / 31011.3 2.0 9.3-5.2
2016-Apr-28 06:00N 60°42' E 005°06'0 0.0 120 / 71010.7 1.5 5.5-2.0
2016-Apr-28 03:00N 60°42' E 005°06'0 0.0 070 / 21009.3 1.5 3.6 0.4
2016-Apr-28 00:00N 60°42' E 005°06'0 0.0 040 / 21008.3 3.1-1.6
2016-Apr-27 21:10N 60°42' E 005°06'0 0.0 010 / 31007.3 2.0 5.2-1.6
2016-Apr-27 18:00N 60°42' E 005°06'0 0.0 320 / 41006.5 1.0 8.3-7.0
2016-Apr-27 15:00N 60°42' E 005°06'0 0.0 310 / 41006.3 0.5 9.3-7.3
2016-Apr-27 12:10N 60°42' E 005°06'0 0.0 250 / 51005.8 11.3-6.9
2016-Apr-27 09:00N 60°42' E 005°06'0 0.0 130 / 21006.3 0.5 7.7-7.5
2016-Apr-27 06:00N 60°42' E 005°06'0 0.0 040 / 31006.8 1.0 4.5-4.2
2016-Apr-27 03:00N 60°42' E 005°06'0 0.0 020 / 41006.9 1.0 2.2-5.7
2016-Apr-27 00:00N 60°42' E 005°06'0 0.0 030 / 51007.1 1.5 3.3-4.7
2016-Apr-26 21:00N 60°42' E 005°06'0 0.0 050 / 41007.7 3.5 5.2-6.2
2016-Apr-26 18:00N 60°42' E 005°06'0 0.0 070 / 51007.7 8.0-9.0
2016-Apr-26 15:00N 60°42' E 005°06'0 0.0 170 / 81007.6 1.0 8.5-8.2
2016-Apr-26 12:00N 60°42' E 005°06'0 0.0 160 / 41008.0 0.5 8.5-9.4
2016-Apr-26 09:00N 60°42' E 005°06'0 0.0 180 / 31008.1 2.5 7.9-8.7
2016-Apr-26 06:00N 60°42' E 005°06'0 0.0 020 / 41008.0 1.5 5.7-5.3
2016-Apr-26 03:00N 60°42' E 005°06'0 0.0 020 / 71007.0 1.0 3.8-4.2
2016-Apr-26 00:00N 60°42' E 005°06'0 0.0 030 / 61006.0 0.5 5.1-5.0
2016-Apr-25 21:00N 60°42' E 005°06'0 0.0 060 / 51004.9 1.5 5.7-5.3
2016-Apr-25 18:00N 60°42' E 005°06'0 0.0 060 / 51003.6 0.5 6.6-3.9
2016-Apr-25 09:00N 60°42' E 005°06'0 0.0 160 / 51002.1 0.5 4.6-6.1
2016-Apr-25 06:00N 60°42' E 005°06'0 0.0 040 / 21002.4 1.5 2.0-3.6
2016-Apr-25 03:00N 60°42' E 005°06'0 0.0 040 / 21003.5 0.5 0.4-2.0
2016-Apr-25 00:00N 60°42' E 005°06'0 0.0 060 / 11005.8 1.5 0.8-0.8
2016-Apr-24 21:00N 60°42' E 005°06'0 0.0 350 / 21008.1 1.0 1.9-2.2
2016-Apr-24 18:00N 60°42' E 005°06'0 0.0 340 / 61009.4 0.5 3.9-2.6
2016-Apr-24 15:00N 60°42' E 005°06'0 0.0 340 / 101010.6 0.5 5.2-2.7
2016-Apr-24 09:00N 60°42' E 005°06'0 0.0 010 / 51012.9 1.0 6.2-6.1
2016-Apr-24 06:00N 60°42' E 005°06'0 0.0 010 / 71013.1 1.5 2.6-4.9
2016-Apr-24 03:00N 60°42' E 005°06'0 0.0 030 / 51013.2 0.5 1.5-4.5
2016-Apr-24 00:00N 60°42' E 005°06'0 0.0 010 / 71012.9 0.5 2.4-4.4
2016-Apr-23 21:00N 60°42' E 005°06'0 0.0 020 / 81012.3 0.5 3.2-2.6
2016-Apr-23 18:00N 60°42' E 005°06'0 0.0 350 / 61011.3 1.0 4.7-2.7
2016-Apr-23 15:00N 60°42' E 005°06'0 0.0 050 / 51011.3 0.5 3.7-1.5
2016-Apr-23 12:00N 60°42' E 005°06'0 0.0 010 / 101012.0 0.5 4.8-5.9
2016-Apr-23 09:00N 60°42' E 005°06'   360 / 81012.6 0.5 4.1-1.2

Dump ship's entire track history